createdAt,value
2019-03-20T00:00:07.715Z,7.60
2019-03-20T00:02:37.014Z,7.10
2019-03-20T00:05:07.380Z,7.80
2019-03-20T00:07:36.668Z,7.65
2019-03-20T00:10:06.877Z,7.45
2019-03-20T00:12:36.285Z,6.87
2019-03-20T00:15:06.796Z,7.87
2019-03-20T00:17:36.191Z,7.17
2019-03-20T00:20:06.423Z,6.35
2019-03-20T00:22:35.729Z,7.28
2019-03-20T00:25:05.169Z,6.47
2019-03-20T00:27:34.465Z,6.50
2019-03-20T00:30:03.961Z,6.92
2019-03-20T00:32:33.310Z,6.65
2019-03-20T00:35:02.607Z,6.37
2019-03-20T00:37:31.867Z,6.55
2019-03-20T00:40:01.228Z,7.15
2019-03-20T00:42:30.494Z,7.05
2019-03-20T00:44:59.775Z,6.37
2019-03-20T00:47:29.229Z,7.20
2019-03-20T00:49:58.530Z,5.75
2019-03-20T00:52:27.787Z,6.78
2019-03-20T00:54:57.108Z,6.87
2019-03-20T00:57:26.383Z,6.87
2019-03-20T00:59:55.664Z,6.90
2019-03-20T01:02:24.947Z,6.30
2019-03-20T01:04:54.241Z,6.00
2019-03-20T01:07:23.529Z,6.08
2019-03-20T01:09:52.804Z,6.78
2019-03-20T01:12:22.082Z,6.00
2019-03-20T01:14:51.330Z,5.75
2019-03-20T01:17:20.617Z,7.25
2019-03-20T01:19:49.886Z,6.60
2019-03-20T01:22:19.177Z,6.30
2019-03-20T01:24:48.425Z,6.55
2019-03-20T01:27:17.719Z,7.10
2019-03-20T01:29:47.012Z,5.20
2019-03-20T01:32:16.307Z,6.35
2019-03-20T01:34:45.593Z,6.78
2019-03-20T01:37:14.912Z,6.50
2019-03-20T01:39:44.175Z,7.37
2019-03-20T01:42:13.477Z,7.17
2019-03-20T01:44:42.739Z,6.15
2019-03-20T01:47:12.124Z,6.30
2019-03-20T01:49:41.403Z,6.50
2019-03-20T01:52:10.693Z,6.85
2019-03-20T01:54:39.969Z,6.12
2019-03-20T01:57:09.270Z,7.03
2019-03-20T01:59:38.533Z,6.60
2019-03-20T02:02:07.856Z,6.65
2019-03-20T02:04:37.144Z,6.00
2019-03-20T02:07:06.435Z,7.25
2019-03-20T02:09:35.708Z,6.28
2019-03-20T02:12:05.028Z,6.45
2019-03-20T02:14:34.292Z,5.90
2019-03-20T02:17:03.559Z,7.60
2019-03-20T02:19:32.845Z,6.97
2019-03-20T02:22:02.112Z,6.60
2019-03-20T02:24:31.417Z,6.62
2019-03-20T02:27:00.670Z,6.95
2019-03-20T02:29:29.944Z,6.90
2019-03-20T02:31:59.221Z,6.55
2019-03-20T02:34:28.493Z,6.78
2019-03-20T02:36:57.755Z,7.45
2019-03-20T02:39:27.048Z,7.37
2019-03-20T02:41:56.383Z,8.30
2019-03-20T02:44:25.660Z,7.10
2019-03-20T02:46:55.018Z,7.87
2019-03-20T02:49:24.292Z,8.48
2019-03-20T02:51:53.557Z,6.67
2019-03-20T02:54:22.869Z,8.60
2019-03-20T02:56:52.212Z,7.12
2019-03-20T02:59:21.512Z,7.37
2019-03-20T03:01:50.800Z,7.70
2019-03-20T03:04:20.066Z,8.08
2019-03-20T03:06:49.353Z,7.55
2019-03-20T03:09:18.638Z,7.90
2019-03-20T03:11:47.930Z,6.92
2019-03-20T03:14:17.396Z,7.80
2019-03-20T03:16:46.697Z,6.60
2019-03-20T03:19:15.978Z,7.45
2019-03-20T03:21:45.285Z,7.90
2019-03-20T03:24:14.577Z,7.92
2019-03-20T03:26:43.878Z,7.47
2019-03-20T03:29:13.151Z,7.60
2019-03-20T03:31:42.445Z,8.35
2019-03-20T03:34:11.844Z,6.45
2019-03-20T03:36:41.120Z,7.90
2019-03-20T03:39:10.441Z,10.30
2019-03-20T03:41:39.741Z,7.20
2019-03-20T03:44:09.021Z,7.42
2019-03-20T03:46:38.325Z,6.75
2019-03-20T03:49:07.622Z,7.42
2019-03-20T03:51:36.901Z,6.95
2019-03-20T03:54:06.184Z,7.25
2019-03-20T03:56:35.465Z,6.90
2019-03-20T03:59:04.768Z,8.60
2019-03-20T04:01:34.114Z,8.23
2019-03-20T04:04:03.378Z,7.08
2019-03-20T04:06:35.775Z,7.45
2019-03-20T04:09:04.319Z,7.90
2019-03-20T04:11:33.625Z,7.03
2019-03-20T04:14:02.917Z,6.42
2019-03-20T04:16:32.252Z,7.75
2019-03-20T04:19:01.531Z,7.85
2019-03-20T04:21:30.834Z,7.65
2019-03-20T04:24:00.108Z,7.40
2019-03-20T04:26:29.442Z,6.97
2019-03-20T04:28:58.733Z,7.80
2019-03-20T04:31:27.993Z,6.60
2019-03-20T04:33:57.798Z,7.90
2019-03-20T04:36:27.216Z,7.20
2019-03-20T04:38:56.509Z,8.05
2019-03-20T04:41:25.773Z,7.92
2019-03-20T04:43:55.063Z,6.87
2019-03-20T04:46:24.345Z,6.62
2019-03-20T04:48:53.657Z,7.25
2019-03-20T04:51:24.972Z,6.20
2019-03-20T04:53:54.233Z,7.15
2019-03-20T04:56:23.518Z,7.33
2019-03-20T04:58:52.894Z,6.72
2019-03-20T05:01:22.267Z,7.15
2019-03-20T05:03:51.541Z,7.05
2019-03-20T05:06:20.828Z,6.75
2019-03-20T05:08:50.116Z,5.67
2019-03-20T05:11:19.412Z,7.15
2019-03-20T05:13:48.672Z,6.03
2019-03-20T05:16:17.958Z,7.83
2019-03-20T05:18:47.224Z,8.80
2019-03-20T05:21:16.549Z,7.92
2019-03-20T05:23:45.851Z,7.75
2019-03-20T05:26:15.125Z,7.47
2019-03-20T05:28:44.385Z,8.38
2019-03-20T05:31:13.699Z,6.65
2019-03-20T05:33:42.996Z,6.40
2019-03-20T05:36:12.258Z,8.43
2019-03-20T05:38:41.529Z,7.50
2019-03-20T05:41:10.853Z,7.05
2019-03-20T05:43:40.116Z,7.00
2019-03-20T05:46:09.426Z,7.55
2019-03-20T05:48:38.693Z,7.33
2019-03-20T05:51:07.971Z,7.75
2019-03-20T05:53:37.236Z,7.55
2019-03-20T05:56:06.558Z,7.10
2019-03-20T05:58:35.840Z,7.85
2019-03-20T06:01:05.121Z,7.25
2019-03-20T06:03:34.450Z,6.90
2019-03-20T06:06:03.705Z,6.60
2019-03-20T06:08:32.983Z,6.15
2019-03-20T06:11:02.269Z,6.40
2019-03-20T06:13:31.608Z,6.62
2019-03-20T06:16:00.985Z,6.72
2019-03-20T06:18:30.265Z,6.55
2019-03-20T06:20:59.641Z,6.62
2019-03-20T06:23:28.905Z,6.60
2019-03-20T06:25:58.200Z,7.17
2019-03-20T06:28:27.471Z,6.20
2019-03-20T06:30:56.757Z,5.80
2019-03-20T06:33:26.048Z,6.43
2019-03-20T06:35:55.339Z,7.30
2019-03-20T06:38:24.603Z,7.53
2019-03-20T06:40:54.130Z,6.53
2019-03-20T06:43:23.392Z,6.70
2019-03-20T06:45:52.699Z,8.40
2019-03-20T06:48:21.960Z,6.80
2019-03-20T06:50:51.262Z,6.30
2019-03-20T06:53:20.564Z,6.40
2019-03-20T06:55:49.835Z,7.13
2019-03-20T06:58:19.184Z,6.37
2019-03-20T07:01:11.941Z,6.23
2019-03-20T07:04:17.992Z,6.83
2019-03-20T07:06:57.851Z,6.23
2019-03-20T07:09:49.341Z,6.50
2019-03-20T07:12:18.638Z,5.87
2019-03-20T07:14:47.903Z,8.03
2019-03-20T07:17:17.184Z,6.40
2019-03-20T07:19:46.452Z,7.33
2019-03-20T07:22:15.750Z,6.80
2019-03-20T07:24:45.029Z,5.90
2019-03-20T07:27:14.345Z,7.00
2019-03-20T07:29:43.645Z,8.30
2019-03-20T07:32:12.948Z,7.73
2019-03-20T07:34:42.209Z,6.23
2019-03-20T07:37:11.500Z,6.93
2019-03-20T07:39:40.780Z,7.00
2019-03-20T07:42:10.092Z,6.50
2019-03-20T07:44:39.372Z,7.50
2019-03-20T07:47:08.740Z,6.33
2019-03-20T07:49:38.005Z,6.77
2019-03-20T07:52:07.278Z,6.53
2019-03-20T07:54:36.583Z,6.57
2019-03-20T07:57:05.841Z,6.93
2019-03-20T07:59:35.125Z,6.57
2019-03-20T08:02:04.392Z,7.27
2019-03-20T08:04:33.701Z,7.83
2019-03-20T08:07:02.973Z,7.47
2019-03-20T08:09:32.270Z,7.33
2019-03-20T08:12:01.668Z,7.67
2019-03-20T08:14:31.240Z,7.50
2019-03-20T08:17:00.529Z,6.60
2019-03-20T08:19:29.797Z,6.30
2019-03-20T08:21:59.091Z,6.20
2019-03-20T08:24:28.369Z,6.90
2019-03-20T08:26:57.668Z,6.80
2019-03-20T08:29:26.945Z,6.70
2019-03-20T08:31:56.226Z,6.30
2019-03-20T08:34:25.479Z,7.80
2019-03-20T08:36:54.834Z,6.70
2019-03-20T08:39:24.089Z,6.37
2019-03-20T08:41:53.402Z,7.63
2019-03-20T08:44:22.677Z,7.30
2019-03-20T08:46:51.956Z,6.67
2019-03-20T08:49:21.224Z,7.87
2019-03-20T08:51:50.493Z,7.47
2019-03-20T08:54:19.788Z,6.93
2019-03-20T08:56:49.069Z,7.90
2019-03-20T08:59:18.357Z,7.60
2019-03-20T09:01:47.620Z,7.73
2019-03-20T09:04:16.905Z,7.40
2019-03-20T09:06:46.192Z,8.23
2019-03-20T09:09:15.493Z,8.07
2019-03-20T09:11:44.765Z,9.23
2019-03-20T09:14:14.051Z,7.57
2019-03-20T09:16:43.312Z,7.67
2019-03-20T09:19:12.595Z,7.50
2019-03-20T09:21:41.875Z,8.13
2019-03-20T09:24:11.157Z,7.23
2019-03-20T09:26:40.417Z,7.47
2019-03-20T09:29:18.129Z,8.00
2019-03-20T09:31:40.706Z,8.77
2019-03-20T09:34:09.971Z,6.93
2019-03-20T09:36:43.402Z,7.50
2019-03-20T09:39:10.258Z,7.80
2019-03-20T09:41:39.571Z,7.93
2019-03-20T09:44:08.871Z,7.37
2019-03-20T09:46:38.240Z,7.60
2019-03-20T09:49:07.506Z,8.03
2019-03-20T09:51:36.797Z,8.33
2019-03-20T09:54:06.074Z,8.90
2019-03-20T09:56:35.364Z,7.40
2019-03-20T09:59:04.726Z,8.80
2019-03-20T10:01:34.033Z,7.30
2019-03-20T10:04:03.333Z,6.40
2019-03-20T10:06:32.689Z,7.50
2019-03-20T10:09:02.137Z,7.87
2019-03-20T10:11:31.529Z,7.87
2019-03-20T10:14:00.849Z,7.70
2019-03-20T10:16:30.122Z,7.97
2019-03-20T10:18:59.435Z,7.10
2019-03-20T10:21:28.771Z,7.50
2019-03-20T10:23:58.085Z,8.20
2019-03-20T10:26:27.348Z,8.07
2019-03-20T10:28:56.631Z,8.37
2019-03-20T10:31:25.922Z,8.07
2019-03-20T10:33:55.205Z,7.40
2019-03-20T10:36:24.471Z,8.07
2019-03-20T10:39:01.964Z,8.47
2019-03-20T10:41:24.864Z,8.17
2019-03-20T10:43:54.143Z,7.80
2019-03-20T10:46:23.509Z,8.60
2019-03-20T10:48:52.831Z,7.93
2019-03-20T10:51:22.135Z,8.00
2019-03-20T10:53:51.392Z,7.50
2019-03-20T10:56:20.682Z,8.43
2019-03-20T10:58:49.941Z,8.17
2019-03-20T11:01:19.228Z,8.07
2019-03-20T11:03:48.605Z,7.23
2019-03-20T11:06:17.985Z,7.80
2019-03-20T11:08:47.251Z,9.17
2019-03-20T11:11:26.673Z,7.90
2019-03-20T11:13:47.659Z,8.70
2019-03-20T11:16:16.912Z,8.90
2019-03-20T11:18:48.374Z,7.80
2019-03-20T11:21:17.217Z,7.93
2019-03-20T11:23:46.508Z,8.67
2019-03-20T11:26:15.776Z,8.03
2019-03-20T11:28:45.064Z,9.77
2019-03-20T11:31:14.351Z,9.00
2019-03-20T11:33:43.639Z,8.27
2019-03-20T11:36:12.898Z,8.00
2019-03-20T11:38:42.167Z,8.33
2019-03-20T11:41:11.477Z,8.80
2019-03-20T11:43:40.739Z,8.57
2019-03-20T11:46:10.037Z,8.87
2019-03-20T11:48:39.304Z,9.23
2019-03-20T11:51:08.616Z,8.77
2019-03-20T11:53:37.971Z,7.83
2019-03-20T11:56:07.247Z,9.70
2019-03-20T11:58:36.589Z,8.10
2019-03-20T12:01:06.402Z,8.13
2019-03-20T12:03:35.745Z,8.17
2019-03-20T12:06:05.148Z,7.33
2019-03-20T12:08:34.428Z,8.53
2019-03-20T12:11:03.710Z,9.53
2019-03-20T12:13:32.989Z,8.87
2019-03-20T12:16:02.294Z,8.57
2019-03-20T12:18:31.568Z,7.63
2019-03-20T12:21:00.862Z,8.17
2019-03-20T12:23:30.153Z,8.33
2019-03-20T12:25:59.441Z,7.00
2019-03-20T12:28:28.796Z,7.10
2019-03-20T12:30:58.093Z,7.93
2019-03-20T12:33:27.366Z,6.50
2019-03-20T12:35:56.662Z,6.43
2019-03-20T12:38:25.937Z,7.63
2019-03-20T12:40:55.379Z,8.07
2019-03-20T12:43:24.761Z,6.70
2019-03-20T12:45:54.057Z,6.17
2019-03-20T12:48:23.324Z,6.37
2019-03-20T12:50:52.612Z,4.97
2019-03-20T12:53:23.006Z,4.50
2019-03-20T12:55:52.393Z,5.13
2019-03-20T12:58:21.653Z,5.20
2019-03-20T13:00:50.941Z,4.53
2019-03-20T13:03:20.194Z,5.37
2019-03-20T13:05:49.520Z,4.67
2019-03-20T13:08:18.905Z,5.00
2019-03-20T13:10:48.183Z,4.90
2019-03-20T13:13:17.628Z,4.70
2019-03-20T13:15:47.192Z,3.90
2019-03-20T13:18:16.490Z,3.40
2019-03-20T13:20:45.799Z,3.20
2019-03-20T13:23:16.823Z,3.40
2019-03-20T13:25:46.147Z,3.83
2019-03-20T13:28:15.433Z,4.90
2019-03-20T13:30:49.072Z,3.80
2019-03-20T13:33:25.582Z,4.27
2019-03-20T13:35:49.524Z,3.93
2019-03-20T13:38:18.833Z,3.87
2019-03-20T13:40:48.222Z,4.23
2019-03-20T13:43:17.551Z,4.13
2019-03-20T13:45:46.850Z,4.23
2019-03-20T13:48:16.116Z,4.63
2019-03-20T13:50:45.431Z,3.60
2019-03-20T13:53:15.496Z,4.00
2019-03-20T13:55:45.065Z,4.13
2019-03-20T13:58:14.781Z,4.10
2019-03-20T14:00:44.178Z,3.83
2019-03-20T14:03:13.504Z,4.50
2019-03-20T14:05:42.897Z,3.97
2019-03-20T14:08:12.182Z,4.10
2019-03-20T14:10:50.318Z,3.60
2019-03-20T14:13:12.519Z,4.03
2019-03-20T14:15:41.836Z,4.57
2019-03-20T14:18:11.214Z,3.70
2019-03-20T14:20:40.504Z,4.30
2019-03-20T14:23:09.785Z,4.57
2019-03-20T14:25:39.129Z,5.50
2019-03-20T14:28:08.413Z,4.90
2019-03-20T14:30:37.687Z,4.97
2019-03-20T14:33:06.971Z,4.17
2019-03-20T14:35:36.249Z,4.23
2019-03-20T14:38:05.731Z,4.20
2019-03-20T14:40:36.850Z,4.47
2019-03-20T14:43:06.182Z,3.80
2019-03-20T14:45:35.690Z,3.00
2019-03-20T14:48:04.982Z,3.67
2019-03-20T14:50:36.425Z,3.23
2019-03-20T14:53:05.325Z,3.20
2019-03-20T14:55:36.599Z,3.10
2019-03-20T14:58:06.004Z,2.87
2019-03-20T15:00:35.282Z,3.07
2019-03-20T15:03:04.557Z,3.10
2019-03-20T15:05:33.837Z,3.00
2019-03-20T15:08:03.116Z,3.30
2019-03-20T15:10:32.413Z,3.30
2019-03-20T15:13:01.688Z,2.47
2019-03-20T15:15:36.876Z,4.53
2019-03-20T15:18:06.197Z,3.03
2019-03-20T15:20:35.444Z,3.00
2019-03-20T15:23:04.850Z,3.33
2019-03-20T15:25:34.132Z,3.43
2019-03-20T15:28:03.394Z,3.30
2019-03-20T15:30:32.668Z,3.57
2019-03-20T15:33:01.962Z,3.60
2019-03-20T15:35:31.232Z,4.27
2019-03-20T15:38:00.512Z,3.80
2019-03-20T15:40:29.824Z,3.53
2019-03-20T15:42:59.110Z,3.50
2019-03-20T15:45:28.395Z,4.13
2019-03-20T15:47:57.651Z,3.13
2019-03-20T15:50:27.122Z,4.43
2019-03-20T15:52:56.567Z,4.13
2019-03-20T15:55:27.926Z,4.63
2019-03-20T15:57:57.187Z,3.23
2019-03-20T16:00:26.498Z,3.13
2019-03-20T16:02:58.945Z,3.60
2019-03-20T16:05:28.264Z,2.83
2019-03-20T16:07:57.546Z,3.73
2019-03-20T16:10:26.828Z,3.97
2019-03-20T16:12:56.097Z,3.60
2019-03-20T16:15:25.509Z,4.20
2019-03-20T16:17:54.785Z,4.70
2019-03-20T16:20:24.977Z,4.10
2019-03-20T16:22:54.248Z,4.30
2019-03-20T16:25:24.513Z,3.90
2019-03-20T16:27:53.781Z,2.83
2019-03-20T16:30:23.392Z,3.07
2019-03-20T16:32:52.662Z,3.73
2019-03-20T16:35:21.980Z,3.20
2019-03-20T16:37:51.223Z,3.77
2019-03-20T16:40:22.168Z,3.90
2019-03-20T16:42:51.445Z,3.23
2019-03-20T16:45:22.902Z,3.10
2019-03-20T16:47:52.188Z,4.10
2019-03-20T16:50:21.473Z,4.80
2019-03-20T16:52:50.749Z,3.70
2019-03-20T16:55:20.028Z,4.20
2019-03-20T16:57:49.310Z,5.70
2019-03-20T17:00:25.926Z,4.20
2019-03-20T17:02:55.209Z,5.17
2019-03-20T17:05:24.923Z,4.40
2019-03-20T17:07:54.475Z,4.00
2019-03-20T17:10:32.386Z,3.10
2019-03-20T17:13:01.681Z,3.13
2019-03-20T17:15:31.329Z,4.87
2019-03-20T17:18:00.617Z,4.53
2019-03-20T17:20:29.892Z,4.30
2019-03-20T17:22:59.359Z,4.07
2019-03-20T17:25:28.747Z,3.90
2019-03-20T17:27:58.033Z,4.70
2019-03-20T17:30:29.409Z,4.50
2019-03-20T17:32:58.715Z,4.10
2019-03-20T17:35:27.992Z,4.97
2019-03-20T17:37:57.281Z,4.40
2019-03-20T17:40:26.862Z,4.77
2019-03-20T17:42:56.165Z,5.27
2019-03-20T17:45:25.963Z,4.40
2019-03-20T17:47:55.316Z,5.37
2019-03-20T17:50:26.553Z,4.60
2019-03-20T17:52:55.863Z,4.80
2019-03-20T17:55:25.553Z,4.17
2019-03-20T17:57:54.823Z,4.80
2019-03-20T18:00:32.425Z,4.50
2019-03-20T18:03:01.718Z,4.60
2019-03-20T18:05:30.992Z,4.30
2019-03-20T18:08:00.271Z,4.87
2019-03-20T18:10:29.640Z,5.40
2019-03-20T18:12:58.896Z,5.17
2019-03-20T18:15:28.187Z,5.87
2019-03-20T18:17:57.458Z,4.53
2019-03-20T18:20:26.744Z,5.33
2019-03-20T18:22:56.035Z,5.60
2019-03-20T18:25:25.316Z,5.37
2019-03-20T18:27:54.596Z,5.63
2019-03-20T18:30:24.019Z,5.80
2019-03-20T18:32:53.264Z,5.70
2019-03-20T18:35:22.604Z,7.20
2019-03-20T18:37:51.920Z,6.70
2019-03-20T18:40:21.263Z,7.87
2019-03-20T18:42:50.537Z,7.60
2019-03-20T18:45:20.272Z,9.30
2019-03-20T18:47:49.749Z,8.17
2019-03-20T18:50:19.930Z,8.03
2019-03-20T18:52:49.540Z,8.50
2019-03-20T18:55:19.070Z,8.67
2019-03-20T18:57:48.460Z,8.37
2019-03-20T19:00:22.521Z,8.70
2019-03-20T19:02:52.412Z,9.60
2019-03-20T19:05:30.740Z,9.03
2019-03-20T19:08:00.059Z,9.33
2019-03-20T19:10:29.539Z,9.60
2019-03-20T19:12:59.018Z,8.97
2019-03-20T19:15:28.310Z,10.20
2019-03-20T19:17:57.670Z,10.07
2019-03-20T19:20:26.952Z,11.77
2019-03-20T19:22:56.279Z,10.63
2019-03-20T19:25:25.572Z,8.40
2019-03-20T19:27:54.946Z,11.40
2019-03-20T19:30:24.236Z,10.57
2019-03-20T19:32:53.545Z,9.47
2019-03-20T19:35:22.931Z,9.63
2019-03-20T19:37:52.240Z,9.50
2019-03-20T19:40:21.533Z,10.43
2019-03-20T19:42:50.937Z,10.17
2019-03-20T19:45:20.288Z,10.77
2019-03-20T19:47:49.708Z,9.83
2019-03-20T19:50:19.062Z,10.27
2019-03-20T19:52:48.368Z,10.70
2019-03-20T19:55:18.109Z,11.53
2019-03-20T19:57:47.399Z,9.43
2019-03-20T20:00:16.748Z,10.57
2019-03-20T20:02:46.074Z,12.00
2019-03-20T20:05:16.287Z,11.23
2019-03-20T20:07:45.927Z,10.93
2019-03-20T20:10:15.349Z,11.07
2019-03-20T20:12:44.637Z,11.10
2019-03-20T20:15:16.337Z,12.33
2019-03-20T20:17:47.035Z,11.47
2019-03-20T20:20:18.077Z,12.20
2019-03-20T20:22:47.449Z,12.27
2019-03-20T20:25:16.769Z,10.83
2019-03-20T20:27:46.072Z,10.60
2019-03-20T20:30:16.739Z,10.83
2019-03-20T20:32:46.023Z,12.70
2019-03-20T20:35:15.366Z,12.40
2019-03-20T20:37:44.744Z,11.30
2019-03-20T20:40:15.677Z,13.13
2019-03-20T20:42:45.068Z,14.47
2019-03-20T20:45:14.816Z,14.87
2019-03-20T20:47:44.148Z,12.77
2019-03-20T20:50:13.578Z,15.10
2019-03-20T20:52:43.550Z,12.23
2019-03-20T20:55:13.248Z,12.03
2019-03-20T20:57:45.324Z,13.13
2019-03-20T21:00:17.116Z,12.90
2019-03-20T21:02:46.458Z,12.57
2019-03-20T21:05:15.831Z,12.77
2019-03-20T21:07:45.208Z,15.03
2019-03-20T21:10:15.992Z,13.00
2019-03-20T21:12:55.676Z,16.10
2019-03-20T21:15:34.083Z,16.03
2019-03-20T21:18:57.020Z,16.10
2019-03-20T21:22:00.246Z,17.70
2019-03-20T21:24:28.665Z,16.07
2019-03-20T21:27:45.217Z,15.00
2019-03-20T21:30:46.613Z,14.27
2019-03-20T21:33:51.146Z,15.93
2019-03-20T21:36:46.984Z,15.77
2019-03-20T21:39:16.858Z,12.50
2019-03-20T21:42:32.380Z,12.10
2019-03-20T21:45:50.621Z,10.07
2019-03-20T21:48:20.483Z,10.70
2019-03-20T21:51:16.142Z,10.30
2019-03-20T21:54:23.616Z,11.10
2019-03-20T21:57:28.805Z,11.37
2019-03-20T22:00:34.140Z,14.00
2019-03-20T22:03:03.985Z,11.00
2019-03-20T22:06:20.166Z,10.27
2019-03-20T22:08:51.251Z,10.80
2019-03-20T22:12:21.401Z,11.97
2019-03-20T22:14:55.776Z,11.50
2019-03-20T22:18:09.140Z,13.43
2019-03-20T22:21:05.633Z,10.27
2019-03-20T22:24:02.818Z,8.37
2019-03-20T22:27:11.945Z,9.60
2019-03-20T22:29:41.801Z,11.87
2019-03-20T22:32:41.101Z,9.97
2019-03-20T22:35:45.815Z,8.50
2019-03-20T22:38:53.321Z,7.70
2019-03-20T22:42:15.513Z,9.90
2019-03-20T22:44:52.823Z,8.07
2019-03-20T22:47:57.848Z,8.10
2019-03-20T22:51:04.050Z,7.60
2019-03-20T22:54:07.317Z,8.17
2019-03-20T22:57:23.622Z,9.20
2019-03-20T22:59:53.432Z,8.80
2019-03-20T23:02:44.414Z,9.27
2019-03-20T23:05:14.261Z,9.73
2019-03-20T23:07:44.086Z,11.30
2019-03-20T23:10:14.978Z,9.60
2019-03-20T23:12:44.798Z,9.27
2019-03-20T23:15:16.241Z,8.17
2019-03-20T23:17:46.044Z,9.73
2019-03-20T23:20:18.731Z,8.00
2019-03-20T23:22:48.561Z,9.70
2019-03-20T23:25:18.486Z,10.93
2019-03-20T23:27:48.319Z,10.17
2019-03-20T23:30:21.220Z,9.20
2019-03-20T23:32:51.072Z,9.93
2019-03-20T23:35:20.890Z,10.90
2019-03-20T23:37:50.729Z,10.13
2019-03-20T23:40:20.568Z,10.50
2019-03-20T23:42:50.497Z,10.13
2019-03-20T23:45:20.855Z,10.33
2019-03-20T23:47:54.577Z,10.50
2019-03-20T23:50:24.413Z,9.37
2019-03-20T23:52:54.249Z,10.30
2019-03-20T23:55:24.060Z,9.93
2019-03-20T23:57:53.893Z,10.33
